Time;durP1;ratioP1;P1;durP2;ratioP2;P2;SDS_P1;SDS_P2;PMS_P1;PMS_P2;Temp;Humidity;BMP_temperature;BMP_pressure;BME280_temperature;BME280_humidity;BME280_pressure;Samples;Min_cycle;Max_cycle;Signal;HPM_P1;HPM_P2
2024/01/16 00:01:17;;;;;;;8.40;5.20;;;;;;;3.96;47.68;96860.13;5052049;28;20183;-69
2024/01/16 00:03:44;;;;;;;7.50;5.20;;;;;;;3.98;47.57;96860.84;5046378;28;20195;-69
2024/01/16 00:06:10;;;;;;;7.73;5.80;;;;;;;3.90;48.44;96865.81;5039312;28;20430;-68
2024/01/16 00:08:35;;;;;;;8.77;5.50;;;;;;;3.90;48.11;96864.03;5050284;28;20785;-71
2024/01/16 00:11:04;;;;;;;8.90;5.50;;;;;;;3.98;48.33;96866.84;5064099;28;20435;-68
2024/01/16 00:13:29;;;;;;;10.90;5.50;;;;;;;3.98;47.78;96860.84;5051409;28;20210;-68
2024/01/16 00:15:56;;;;;;;8.83;5.97;;;;;;;3.96;47.85;96854.94;5051988;28;20433;-68
2024/01/16 00:18:22;;;;;;;8.00;6.17;;;;;;;3.91;48.08;96849.28;5036969;28;20230;-69
2024/01/16 00:20:47;;;;;;;8.60;5.30;;;;;;;3.93;48.02;96844.81;5065993;28;20429;-70
2024/01/16 00:23:13;;;;;;;10.40;5.80;;;;;;;3.95;48.13;96842.94;5052190;28;20282;-70
2024/01/16 00:25:38;;;;;;;8.87;5.87;;;;;;;3.92;47.59;96853.53;5054186;28;20202;-69
2024/01/16 00:28:04;;;;;;;6.67;4.63;;;;;;;3.79;48.04;96846.69;5047095;28;20187;-72
2024/01/16 00:30:29;;;;;;;10.10;6.23;;;;;;;3.82;47.54;96859.44;5052493;28;20194;-70
2024/01/16 00:32:55;;;;;;;8.20;5.47;;;;;;;3.82;47.64;96853.44;5055725;28;20228;-67
2024/01/16 00:35:21;;;;;;;8.43;5.57;;;;;;;3.80;47.98;96850.94;5049060;28;20316;-69
2024/01/16 00:37:46;;;;;;;10.20;5.80;;;;;;;3.81;48.23;96852.59;5033145;28;20586;-70
2024/01/16 00:40:12;;;;;;;10.50;6.37;;;;;;;3.84;48.18;96852.38;5035558;28;20257;-70
2024/01/16 00:42:38;;;;;;;9.07;4.80;;;;;;;3.82;47.98;96843.88;5057325;28;20189;-69
2024/01/16 00:45:04;;;;;;;8.87;5.60;;;;;;;3.87;47.77;96846.09;5044136;28;20203;-68
2024/01/16 00:47:29;;;;;;;7.67;5.13;;;;;;;3.82;48.08;96843.88;5041885;28;20767;-69
2024/01/16 00:49:55;;;;;;;10.23;6.13;;;;;;;3.76;47.75;96833.16;5059780;28;20498;-69
2024/01/16 00:52:20;;;;;;;9.73;5.30;;;;;;;3.72;47.55;96836.94;5050470;28;20213;-68
2024/01/16 00:54:46;;;;;;;9.70;5.27;;;;;;;3.78;48.35;96841.66;5052449;28;20175;-69
2024/01/16 00:57:11;;;;;;;8.37;5.17;;;;;;;3.53;47.83;96839.16;5058962;28;20177;-67
2024/01/16 00:59:37;;;;;;;8.17;5.90;;;;;;;3.57;48.61;96839.78;5053830;28;20225;-68
2024/01/16 01:02:06;;;;;;;9.20;4.97;;;;;;;3.66;48.05;96840.81;5051342;28;20648;-68
2024/01/16 01:04:32;;;;;;;9.00;5.17;;;;;;;3.74;48.22;96838.47;5048597;28;20190;-70
2024/01/16 01:06:58;;;;;;;8.60;5.70;;;;;;;3.87;48.19;96846.09;5017642;28;21028;-69
2024/01/16 01:09:23;;;;;;;7.97;4.70;;;;;;;3.92;47.33;96838.81;5049237;28;20473;-69
2024/01/16 01:11:49;;;;;;;8.03;4.83;;;;;;;3.94;47.98;96841.28;5052469;28;20321;-69
2024/01/16 01:14:14;;;;;;;9.97;5.47;;;;;;;3.95;48.05;96848.09;5059849;28;20602;-70
2024/01/16 01:16:40;;;;;;;6.97;4.90;;;;;;;3.92;47.72;96848.34;5049798;28;20270;-69
2024/01/16 01:19:05;;;;;;;7.50;5.00;;;;;;;3.93;47.35;96856.03;5041891;28;20211;-69
2024/01/16 01:21:30;;;;;;;6.83;4.67;;;;;;;3.74;48.11;96851.44;5040525;28;20179;-68
2024/01/16 01:23:56;;;;;;;7.70;5.57;;;;;;;3.81;47.95;96849.19;5041471;28;20598;-69
2024/01/16 01:26:21;;;;;;;8.20;5.10;;;;;;;3.81;47.81;96857.78;5062317;28;20178;-69
2024/01/16 01:28:48;;;;;;;7.03;4.60;;;;;;;3.88;47.92;96857.31;5054205;28;20302;-71
2024/01/16 01:31:13;;;;;;;8.87;5.50;;;;;;;3.94;48.22;96857.66;5049453;28;21032;-68
2024/01/16 01:33:39;;;;;;;6.00;4.87;;;;;;;3.96;47.57;96865.31;5049686;28;20326;-67
2024/01/16 01:36:05;;;;;;;5.97;4.67;;;;;;;3.97;47.39;96866.97;5048050;28;20190;-68
2024/01/16 01:38:30;;;;;;;6.80;4.73;;;;;;;3.98;47.66;96860.84;5056686;28;20179;-70
2024/01/16 01:40:56;;;;;;;8.27;4.97;;;;;;;3.95;47.30;96866.25;5042641;28;20321;-68
2024/01/16 01:43:24;;;;;;;8.60;5.47;;;;;;;3.87;46.64;96877.22;5054412;28;20643;-69
2024/01/16 01:46:04;;;;;;;8.63;5.47;;;;;;;3.96;47.45;96870.50;5051280;28;20257;-69
2024/01/16 01:48:31;;;;;;;7.87;5.13;;;;;;;3.91;47.35;96872.63;5049216;28;20421;-69
2024/01/16 01:50:57;;;;;;;7.30;5.13;;;;;;;3.89;47.45;96874.53;5050578;28;20429;-68
2024/01/16 01:53:23;;;;;;;8.30;5.57;;;;;;;3.92;47.40;96882.03;5046525;28;20424;-68
2024/01/16 01:55:49;;;;;;;6.70;5.50;;;;;;;3.83;47.65;96876.63;5059793;28;20444;-68
2024/01/16 01:58:14;;;;;;;6.47;4.33;;;;;;;3.72;47.71;96876.63;5058147;28;20183;-69
2024/01/16 02:00:40;;;;;;;8.00;5.07;;;;;;;3.86;47.53;96885.13;5052476;28;20183;-69
2024/01/16 02:03:05;;;;;;;10.23;5.57;;;;;;;3.76;47.97;96885.84;5051304;28;20199;-70
2024/01/16 02:05:31;;;;;;;6.17;4.63;;;;;;;3.83;47.69;96887.00;5042094;28;20204;-72
2024/01/16 02:07:57;;;;;;;7.70;5.10;;;;;;;3.94;47.38;96893.13;5046267;28;20187;-71
2024/01/16 02:10:23;;;;;;;11.13;5.07;;;;;;;4.00;47.37;96890.09;5037267;28;20503;-71
2024/01/16 02:12:48;;;;;;;7.40;5.07;;;;;;;3.89;47.05;96892.69;5046471;28;20233;-71
2024/01/16 02:15:14;;;;;;;7.03;5.00;;;;;;;3.74;47.74;96887.72;5047328;28;20190;-70
2024/01/16 02:17:39;;;;;;;8.93;5.10;;;;;;;3.81;47.66;96894.06;5045962;28;20226;-70
2024/01/16 02:20:07;;;;;;;11.43;5.37;;;;;;;3.75;47.27;96897.16;5058501;28;20263;-72
2024/01/16 02:22:33;;;;;;;9.60;5.37;;;;;;;3.81;47.67;96899.25;5051896;28;20605;-70
2024/01/16 02:24:58;;;;;;;9.23;5.17;;;;;;;3.78;47.77;96894.31;5049260;28;20457;-67
2024/01/16 02:27:24;;;;;;;13.10;5.20;;;;;;;3.93;47.15;96900.09;5053412;28;20931;-70
2024/01/16 02:29:49;;;;;;;6.90;4.63;;;;;;;3.95;47.17;96887.00;5042062;28;20211;-72
2024/01/16 02:32:15;;;;;;;8.03;4.90;;;;;;;3.93;46.98;96892.31;5054030;28;20202;-69
2024/01/16 02:34:41;;;;;;;9.17;5.80;;;;;;;3.94;47.15;96893.97;5055101;28;20186;-70
2024/01/16 02:37:07;;;;;;;8.40;5.20;;;;;;;3.97;47.46;96898.09;5052295;28;20480;-71
2024/01/16 02:39:32;;;;;;;12.23;5.30;;;;;;;3.96;46.77;96891.25;5059548;28;20698;-69
2024/01/16 02:41:58;;;;;;;5.57;4.60;;;;;;;3.99;46.77;96893.63;5048216;28;20262;-70
2024/01/16 02:44:23;;;;;;;8.43;5.00;;;;;;;3.97;46.94;96896.31;5047709;28;20213;-70
2024/01/16 02:46:49;;;;;;;6.47;4.73;;;;;;;4.01;47.28;96899.50;5048218;28;20191;-70
2024/01/16 02:49:15;;;;;;;8.03;4.97;;;;;;;4.06;46.94;96892.19;5041962;28;20206;-70
2024/01/16 02:51:41;;;;;;;7.70;4.53;;;;;;;4.06;46.84;96896.56;5042639;28;20183;-68
2024/01/16 02:54:07;;;;;;;5.70;4.40;;;;;;;3.99;46.53;96901.41;5058026;28;20428;-67
2024/01/16 02:56:33;;;;;;;7.23;5.00;;;;;;;3.87;47.11;96897.97;5044508;28;20183;-68
2024/01/16 02:58:59;;;;;;;7.07;5.07;;;;;;;3.87;47.47;96902.34;5051001;28;20445;-69
2024/01/16 03:01:24;;;;;;;7.93;5.33;;;;;;;3.85;46.71;96897.25;5049337;28;20186;-70
2024/01/16 03:03:50;;;;;;;5.77;4.93;;;;;;;3.84;46.49;96899.03;5056128;28;20691;-69
2024/01/16 03:06:23;;;;;;;7.60;4.80;;;;;;;3.74;46.89;96892.91;5048855;28;20187;-69
2024/01/16 03:08:48;;;;;;;7.83;4.90;;;;;;;3.72;46.45;96894.78;5047137;28;20282;-69
2024/01/16 03:11:14;;;;;;;6.40;5.00;;;;;;;3.67;46.76;96891.72;5056859;28;21131;-69
2024/01/16 03:13:39;;;;;;;6.93;4.73;;;;;;;3.57;46.98;96891.59;5066852;28;20265;-70
2024/01/16 03:16:08;;;;;;;12.00;5.23;;;;;;;3.66;46.75;96893.50;5035819;28;20242;-69
2024/01/16 03:18:34;;;;;;;8.70;5.27;;;;;;;3.74;46.61;96892.91;5045595;28;20203;-70
2024/01/16 03:20:59;;;;;;;6.80;4.97;;;;;;;3.76;47.09;96905.75;5043609;28;20512;-69
2024/01/16 03:23:25;;;;;;;8.20;4.77;;;;;;;3.74;47.06;96895.50;5044167;28;20226;-68
2024/01/16 03:25:50;;;;;;;7.50;5.07;;;;;;;3.73;46.88;96909.41;5046173;28;20293;-69
2024/01/16 03:28:16;;;;;;;6.20;4.80;;;;;;;3.65;46.63;96898.81;5048613;28;20183;-69
2024/01/16 03:30:41;;;;;;;9.17;4.80;;;;;;;3.68;46.83;96903.72;5048192;28;20182;-69
2024/01/16 03:33:07;;;;;;;6.43;4.50;;;;;;;3.60;47.13;96904.31;5054038;28;20198;-69
2024/01/16 03:35:32;;;;;;;6.20;4.73;;;;;;;3.66;46.88;96906.44;5048433;28;20191;-70
2024/01/16 03:37:58;;;;;;;7.67;5.00;;;;;;;3.72;46.76;96905.16;5054285;28;20183;-69
2024/01/16 03:40:24;;;;;;;7.20;5.20;;;;;;;3.56;46.98;96904.66;5048747;28;20203;-69
2024/01/16 03:42:49;;;;;;;7.07;4.70;;;;;;;3.61;47.00;96902.56;5050093;28;20425;-69
2024/01/16 03:45:15;;;;;;;8.73;5.10;;;;;;;3.64;46.60;96899.75;5042760;28;20199;-69
2024/01/16 03:47:40;;;;;;;8.00;5.73;;;;;;;3.47;46.93;96900.97;5052512;28;20715;-69
2024/01/16 03:50:06;;;;;;;12.27;5.67;;;;;;;3.62;46.38;96896.44;5053395;28;20297;-69
2024/01/16 03:52:31;;;;;;;8.20;4.87;;;;;;;3.66;46.67;96895.25;5052545;28;20187;-69
2024/01/16 03:54:57;;;;;;;7.83;5.33;;;;;;;3.68;46.41;96893.34;5054951;28;20672;-69
2024/01/16 03:57:23;;;;;;;6.10;4.57;;;;;;;3.65;46.74;96893.63;5045368;28;20632;-69
2024/01/16 03:59:48;;;;;;;6.00;4.67;;;;;;;3.57;46.14;96896.78;5059372;28;20285;-69
2024/01/16 04:02:14;;;;;;;9.43;4.73;;;;;;;3.59;46.51;96894.06;5057575;28;20564;-69
2024/01/16 04:04:39;;;;;;;9.10;4.90;;;;;;;3.51;46.69;96892.06;5057617;28;20206;-71
2024/01/16 04:07:05;;;;;;;8.13;4.70;;;;;;;3.49;46.94;96888.75;5052079;28;20214;-70
2024/01/16 04:09:30;;;;;;;5.70;3.93;;;;;;;3.53;46.65;96885.00;5054150;28;20202;-68
2024/01/16 04:11:56;;;;;;;7.33;4.80;;;;;;;3.52;46.75;96885.94;5046999;28;20640;-69
2024/01/16 04:14:21;;;;;;;6.93;4.80;;;;;;;3.45;46.47;96895.13;5040159;28;20176;-69
2024/01/16 04:16:47;;;;;;;5.00;3.90;;;;;;;3.47;46.78;96888.03;5043083;28;20191;-69
2024/01/16 04:19:13;;;;;;;5.80;4.57;;;;;;;3.43;47.21;96890.03;5043770;28;20195;-70
2024/01/16 04:21:38;;;;;;;7.70;5.10;;;;;;;3.48;46.85;96887.09;5049800;28;20180;-70
2024/01/16 04:24:04;;;;;;;10.53;5.03;;;;;;;3.42;46.72;96883.19;5050197;28;20257;-70
2024/01/16 04:26:29;;;;;;;11.60;5.37;;;;;;;3.38;46.68;96886.97;5049981;28;20186;-70
2024/01/16 04:28:54;;;;;;;7.07;5.10;;;;;;;3.41;46.72;96885.91;5040741;28;20227;-68
2024/01/16 04:31:22;;;;;;;5.60;4.40;;;;;;;3.32;46.31;96882.25;5058727;28;20265;-69
2024/01/16 04:33:47;;;;;;;6.60;4.93;;;;;;;3.29;47.11;96877.28;5057369;28;20211;-69
2024/01/16 04:36:13;;;;;;;6.70;4.50;;;;;;;3.22;46.30;96880.34;5055476;28;20421;-68
2024/01/16 04:38:38;;;;;;;6.90;4.70;;;;;;;3.20;46.51;96878.81;5044865;28;20590;-70
2024/01/16 04:41:04;;;;;;;7.63;5.30;;;;;;;3.11;47.09;96880.31;5043260;28;20274;-72
2024/01/16 04:43:30;;;;;;;7.47;4.43;;;;;;;2.98;46.68;96875.22;5052691;28;20189;-70
2024/01/16 04:45:55;;;;;;;9.07;4.97;;;;;;;2.96;47.08;96878.84;5049932;28;20218;-69
2024/01/16 04:48:20;;;;;;;8.20;5.00;;;;;;;3.03;47.00;96885.22;5058789;28;20265;-69
2024/01/16 04:50:46;;;;;;;8.23;4.00;;;;;;;2.88;47.00;96885.44;5054792;28;20265;-70
2024/01/16 04:53:11;;;;;;;10.07;4.70;;;;;;;2.75;47.62;96890.66;5065937;28;20185;-68
2024/01/16 04:55:37;;;;;;;11.20;4.63;;;;;;;2.92;47.03;96886.03;5053817;28;20313;-70
2024/01/16 04:58:02;;;;;;;5.60;4.00;;;;;;;2.92;47.00;96878.25;5054096;28;20187;-68
2024/01/16 05:00:28;;;;;;;10.20;4.20;;;;;;;2.92;46.75;96878.25;5042342;28;20742;-69
2024/01/16 05:02:53;;;;;;;9.50;4.97;;;;;;;2.87;46.77;96878.59;5057680;28;20179;-68
2024/01/16 05:05:19;;;;;;;7.10;4.57;;;;;;;2.93;47.25;96874.72;5044687;28;20199;-70
2024/01/16 05:07:45;;;;;;;8.47;5.00;;;;;;;2.94;47.27;96878.13;5049842;28;20383;-70
2024/01/16 05:10:12;;;;;;;6.80;4.57;;;;;;;2.91;46.78;96880.00;5054978;28;20209;-70
2024/01/16 05:12:39;;;;;;;8.53;4.47;;;;;;;2.94;47.19;96873.81;5050967;28;20183;-71
2024/01/16 05:15:05;;;;;;;8.90;4.53;;;;;;;2.96;46.91;96877.06;5045169;28;20430;-70
2024/01/16 05:17:31;;;;;;;9.07;5.13;;;;;;;2.79;47.28;96880.09;5053758;28;20437;-70
2024/01/16 05:19:56;;;;;;;6.10;4.00;;;;;;;2.70;47.63;96881.56;5055802;28;20468;-71
2024/01/16 05:22:22;;;;;;;5.27;4.20;;;;;;;2.79;47.71;96880.91;5056307;28;20189;-69
2024/01/16 05:24:47;;;;;;;5.33;4.33;;;;;;;2.78;47.40;96874.06;5057148;28;20249;-70
2024/01/16 05:27:13;;;;;;;6.63;4.20;;;;;;;2.71;47.40;96871.09;5050062;28;20210;-70
2024/01/16 05:29:40;;;;;;;4.93;3.40;;;;;;;2.45;48.00;96866.06;5049836;28;20210;-71
2024/01/16 05:32:06;;;;;;;6.60;4.40;;;;;;;2.49;47.84;96856.31;5051446;28;20194;-71
2024/01/16 05:34:31;;;;;;;7.70;4.90;;;;;;;2.43;47.81;96859.34;5044814;28;20509;-69
2024/01/16 05:36:57;;;;;;;7.10;4.77;;;;;;;2.54;47.45;96859.38;5049367;28;20207;-69
2024/01/16 05:39:22;;;;;;;5.77;4.03;;;;;;;2.60;47.52;96850.34;5053203;28;20238;-70
2024/01/16 05:41:48;;;;;;;11.57;4.63;;;;;;;2.63;47.64;96859.69;5057317;28;20203;-69
2024/01/16 05:44:13;;;;;;;6.50;4.90;;;;;;;2.65;47.64;96852.63;5048910;28;20234;-70
2024/01/16 05:46:38;;;;;;;5.67;4.47;;;;;;;2.42;47.97;96852.50;5047917;28;20221;-70
2024/01/16 05:49:04;;;;;;;8.00;4.50;;;;;;;2.54;48.12;96850.81;5052784;28;20233;-68
2024/01/16 05:51:29;;;;;;;15.77;10.33;;;;;;;2.57;47.88;96845.44;5052030;28;20522;-68
2024/01/16 05:53:55;;;;;;;14.67;7.83;;;;;;;2.44;47.88;96843.72;5049203;28;20255;-69
2024/01/16 05:56:21;;;;;;;20.47;14.00;;;;;;;2.37;48.08;96842.50;5049931;28;20186;-68
2024/01/16 05:58:46;;;;;;;23.53;13.53;;;;;;;2.34;48.43;96845.28;5049195;28;21001;-69
2024/01/16 06:01:14;;;;;;;11.53;7.43;;;;;;;2.38;48.35;96846.72;5043335;28;20264;-69
2024/01/16 06:03:40;;;;;;;19.43;10.00;;;;;;;2.37;48.30;96849.44;5043643;28;20532;-69
2024/01/16 06:06:07;;;;;;;21.93;13.43;;;;;;;2.48;47.67;96859.00;5059393;28;20486;-69
2024/01/16 06:08:33;;;;;;;22.33;13.43;;;;;;;2.53;47.61;96849.16;5054485;28;20667;-68
2024/01/16 06:10:58;;;;;;;12.50;9.50;;;;;;;2.61;47.79;96852.84;5048153;28;20421;-68
2024/01/16 06:13:23;;;;;;;10.40;7.60;;;;;;;2.54;48.01;96851.63;5043970;28;20712;-68
2024/01/16 06:15:49;;;;;;;11.07;7.50;;;;;;;2.58;47.69;96844.50;5054139;28;20194;-68
2024/01/16 06:18:14;;;;;;;8.03;5.43;;;;;;;2.67;47.63;96851.56;5050568;28;20228;-67
2024/01/16 06:20:40;;;;;;;8.20;4.90;;;;;;;2.69;46.81;96849.72;5047851;28;20235;-69
2024/01/16 06:23:05;;;;;;;9.40;5.13;;;;;;;2.53;46.56;96852.56;5042280;28;20229;-69
2024/01/16 06:25:31;;;;;;;7.90;4.77;;;;;;;2.60;46.05;96856.38;5040880;28;20203;-70
2024/01/16 06:27:56;;;;;;;8.10;4.73;;;;;;;2.53;46.52;96844.78;5052829;28;20269;-70
2024/01/16 06:30:23;;;;;;;6.90;4.87;;;;;;;2.62;46.00;96840.72;5037953;28;20227;-69
2024/01/16 06:32:48;;;;;;;6.07;4.13;;;;;;;2.63;45.70;96839.78;5039492;28;20194;-70
2024/01/16 06:35:15;;;;;;;7.57;4.50;;;;;;;2.62;45.83;96830.38;5041182;28;20422;-69
2024/01/16 06:37:41;;;;;;;5.40;4.00;;;;;;;2.54;45.43;96838.69;5029300;28;20812;-71
2024/01/16 06:40:07;;;;;;;7.00;4.30;;;;;;;2.55;45.20;96845.53;5040192;28;20438;-69
2024/01/16 06:42:33;;;;;;;5.87;3.60;;;;;;;2.57;45.18;96841.06;5043238;28;20224;-70
2024/01/16 06:44:58;;;;;;;7.57;4.63;;;;;;;2.56;45.72;96854.94;5036520;28;20199;-69
2024/01/16 06:47:24;;;;;;;5.20;3.70;;;;;;;2.59;45.34;96859.91;5050173;28;20415;-69
2024/01/16 06:49:49;;;;;;;7.80;4.57;;;;;;;2.49;45.09;96858.91;5052432;28;20288;-69
2024/01/16 06:52:15;;;;;;;5.90;4.60;;;;;;;2.44;44.90;96856.66;5050541;28;20889;-69
2024/01/16 06:54:40;;;;;;;11.70;4.67;;;;;;;2.37;44.83;96852.03;5042109;28;20629;-69
2024/01/16 06:57:06;;;;;;;6.97;4.20;;;;;;;2.30;45.69;96846.47;5044825;28;20194;-68
2024/01/16 06:59:31;;;;;;;6.90;4.30;;;;;;;2.29;45.65;96858.56;5039700;28;20239;-68
2024/01/16 07:01:57;;;;;;;6.23;4.50;;;;;;;2.40;45.30;96847.47;5038893;28;20507;-70
2024/01/16 07:04:22;;;;;;;9.17;4.33;;;;;;;2.43;45.42;96849.84;5036445;28;20253;-70
2024/01/16 07:06:48;;;;;;;6.07;3.83;;;;;;;2.49;44.39;96853.75;5043164;28;20194;-69
2024/01/16 07:09:13;;;;;;;7.23;4.00;;;;;;;2.49;44.97;96856.31;5036430;28;20195;-69
2024/01/16 07:11:42;;;;;;;5.50;3.80;;;;;;;2.41;44.74;96856.88;5042923;28;20190;-70
2024/01/16 07:14:09;;;;;;;6.10;4.60;;;;;;;2.35;44.16;96852.13;5027054;28;20211;-69
2024/01/16 07:16:34;;;;;;;5.43;3.97;;;;;;;2.18;44.52;96855.91;5047862;28;20826;-68
2024/01/16 07:19:01;;;;;;;5.17;3.70;;;;;;;2.27;45.00;96852.66;5042635;28;20440;-68
2024/01/16 07:21:28;;;;;;;5.83;4.30;;;;;;;2.40;44.62;96850.03;5061485;28;20181;-68
2024/01/16 07:23:53;;;;;;;5.60;3.80;;;;;;;2.44;44.41;96845.47;5051826;28;20440;-69
2024/01/16 07:26:19;;;;;;;9.20;4.70;;;;;;;2.44;44.15;96843.72;5057156;28;20429;-70
2024/01/16 07:28:44;;;;;;;8.50;4.43;;;;;;;2.41;44.38;96845.69;5053756;28;20702;-68
2024/01/16 07:31:11;;;;;;;9.20;4.73;;;;;;;2.50;44.56;96850.22;5052511;28;20274;-70
2024/01/16 07:33:36;;;;;;;5.20;3.70;;;;;;;2.57;44.64;96848.00;5063709;28;20568;-70
2024/01/16 07:36:02;;;;;;;5.30;3.90;;;;;;;2.55;44.33;96853.28;5036700;28;20413;-69
2024/01/16 07:38:27;;;;;;;7.23;4.27;;;;;;;2.43;44.26;96849.00;5040911;28;20175;-68
2024/01/16 07:40:53;;;;;;;5.70;4.07;;;;;;;2.39;44.54;96845.81;5036192;28;20191;-69
2024/01/16 07:43:18;;;;;;;8.67;4.87;;;;;;;2.42;44.64;96847.34;5042828;28;20223;-70
2024/01/16 07:45:44;;;;;;;5.30;4.40;;;;;;;2.44;44.20;96854.06;5034022;28;20303;-70
2024/01/16 07:48:09;;;;;;;5.47;4.10;;;;;;;2.41;44.50;96856.03;5040336;28;20263;-70
2024/01/16 07:50:34;;;;;;;6.30;4.10;;;;;;;2.51;44.69;96848.44;5046781;28;20325;-66
2024/01/16 07:53:00;;;;;;;11.00;4.80;;;;;;;2.54;44.39;96845.63;5038674;28;20695;-69
2024/01/16 07:55:26;;;;;;;10.77;4.43;;;;;;;2.45;43.83;96841.94;5049349;28;20255;-69
2024/01/16 07:57:53;;;;;;;12.53;5.20;;;;;;;2.60;43.76;96843.44;5042767;28;20188;-67
2024/01/16 08:00:19;;;;;;;10.97;5.30;;;;;;;2.72;43.52;96844.28;5042701;28;20456;-70
2024/01/16 08:02:44;;;;;;;9.87;4.77;;;;;;;2.66;43.39;96854.25;5034500;28;20447;-71
2024/01/16 08:05:10;;;;;;;7.60;4.50;;;;;;;2.75;43.49;96846.66;5047514;28;20728;-69
2024/01/16 08:07:35;;;;;;;6.63;4.60;;;;;;;2.84;43.24;96845.16;5040368;28;20238;-70
2024/01/16 08:10:01;;;;;;;6.17;4.20;;;;;;;2.78;43.27;96847.38;5036239;28;20217;-69
2024/01/16 08:12:26;;;;;;;6.00;4.20;;;;;;;2.78;43.32;96847.38;5047469;28;20175;-69
2024/01/16 08:14:52;;;;;;;8.77;4.00;;;;;;;2.77;43.39;96851.75;5039123;28;20309;-70
2024/01/16 08:17:17;;;;;;;6.43;3.63;;;;;;;2.87;43.50;96842.34;5043327;28;20226;-70
2024/01/16 08:19:43;;;;;;;7.07;4.50;;;;;;;2.86;43.57;96838.13;5042481;28;20234;-69
2024/01/16 08:22:08;;;;;;;11.43;4.80;;;;;;;2.88;43.53;96835.41;5028866;28;20589;-69
2024/01/16 08:24:34;;;;;;;8.63;4.70;;;;;;;2.94;43.08;96842.72;5041319;28;20262;-69
2024/01/16 08:26:59;;;;;;;7.63;4.43;;;;;;;3.05;43.58;96844.50;5047261;28;20273;-70
2024/01/16 08:29:25;;;;;;;9.40;3.97;;;;;;;3.13;43.05;96842.19;5031451;28;20641;-69
2024/01/16 08:31:53;;;;;;;6.20;4.03;;;;;;;3.13;42.61;96842.19;5043071;28;20714;-68
2024/01/16 08:34:19;;;;;;;7.73;4.53;;;;;;;3.04;42.91;96842.84;5051677;28;20186;-69
2024/01/16 08:36:44;;;;;;;6.70;4.50;;;;;;;3.14;42.69;96845.59;5045014;28;20442;-71
2024/01/16 08:39:10;;;;;;;8.50;4.23;;;;;;;3.19;43.14;96857.25;5036512;28;20248;-69
2024/01/16 08:41:36;;;;;;;7.43;4.33;;;;;;;3.27;42.79;96855.88;5036620;28;20191;-68
2024/01/16 08:44:01;;;;;;;6.33;4.60;;;;;;;3.30;43.21;96863.41;5044413;28;20215;-68
2024/01/16 08:46:27;;;;;;;6.40;4.23;;;;;;;3.35;43.19;96862.09;5038007;28;20188;-68
2024/01/16 08:48:52;;;;;;;8.70;4.57;;;;;;;3.39;42.99;96862.72;5035403;28;20204;-69
2024/01/16 08:51:17;;;;;;;4.97;3.77;;;;;;;3.56;41.82;96870.97;5051424;28;20205;-69
2024/01/16 08:53:43;;;;;;;6.90;3.80;;;;;;;3.54;42.41;96869.31;5040395;28;20191;-69
2024/01/16 08:56:08;;;;;;;8.77;3.70;;;;;;;3.59;41.66;96874.16;5037817;28;20721;-70
2024/01/16 08:58:36;;;;;;;4.90;3.80;;;;;;;3.65;41.85;96873.69;5034233;28;20430;-70
2024/01/16 09:01:05;;;;;;;5.90;4.00;;;;;;;3.64;41.78;96876.41;5042574;28;20180;-68
2024/01/16 09:03:31;;;;;;;7.20;3.93;;;;;;;3.74;41.46;96873.91;5043556;28;20478;-71
2024/01/16 09:05:57;;;;;;;7.77;3.60;;;;;;;3.73;41.34;96873.09;5037113;28;20504;-69
2024/01/16 09:08:22;;;;;;;4.50;3.83;;;;;;;3.61;41.87;96867.09;5037533;28;20914;-69
2024/01/16 09:10:48;;;;;;;6.40;3.97;;;;;;;3.81;41.71;96862.16;5039262;28;20243;-71
2024/01/16 09:13:13;;;;;;;7.37;3.83;;;;;;;3.82;42.03;96875.00;5044544;28;20176;-68
2024/01/16 09:15:39;;;;;;;9.00;4.00;;;;;;;3.86;41.16;96869.56;5027423;28;20191;-70
2024/01/16 09:18:05;;;;;;;7.20;4.17;;;;;;;3.86;41.15;96869.56;5040578;28;20618;-71
2024/01/16 09:20:31;;;;;;;9.03;4.50;;;;;;;3.92;41.64;96863.91;5044477;28;20202;-70
2024/01/16 09:22:56;;;;;;;7.57;4.50;;;;;;;3.94;41.92;96862.84;5040643;28;20498;-70
2024/01/16 09:25:24;;;;;;;6.50;4.10;;;;;;;4.07;40.88;96869.69;5048281;28;20195;-70
2024/01/16 09:27:50;;;;;;;6.90;4.30;;;;;;;4.19;41.18;96871.31;5038285;28;20172;-70
2024/01/16 09:30:16;;;;;;;6.33;3.87;;;;;;;4.29;40.61;96874.84;5041375;28;20795;-70
2024/01/16 09:32:42;;;;;;;5.97;4.00;;;;;;;4.35;40.65;96864.94;5044394;28;20529;-67
2024/01/16 09:35:09;;;;;;;7.37;4.00;;;;;;;4.42;40.89;96869.47;5038177;28;20711;-70
2024/01/16 09:37:35;;;;;;;7.63;4.30;;;;;;;4.56;41.00;96875.34;5039535;28;20450;-69
2024/01/16 09:40:00;;;;;;;7.60;4.20;;;;;;;4.77;40.77;96870.19;5034416;28;20454;-69
2024/01/16 09:42:27;;;;;;;6.13;4.00;;;;;;;4.80;40.04;96871.72;5034154;28;20450;-70
2024/01/16 09:44:55;;;;;;;7.20;4.00;;;;;;;4.96;39.76;96866.94;5047936;28;20295;-69
2024/01/16 09:47:20;;;;;;;8.20;4.20;;;;;;;5.05;39.67;96865.38;5032784;28;20471;-69
2024/01/16 09:49:46;;;;;;;5.70;3.90;;;;;;;5.08;39.25;96863.34;5024516;28;20434;-69
2024/01/16 09:52:11;;;;;;;6.27;3.40;;;;;;;5.17;39.70;96860.91;5032845;28;20203;-70
2024/01/16 09:54:37;;;;;;;6.67;3.83;;;;;;;5.32;39.23;96859.66;5035572;28;20163;-69
2024/01/16 09:57:06;;;;;;;7.43;3.70;;;;;;;5.43;38.90;96860.53;5042415;28;20620;-71
2024/01/16 09:59:32;;;;;;;3.90;3.27;;;;;;;5.58;39.02;96846.25;5034754;28;20209;-69
2024/01/16 10:02:00;;;;;;;5.33;3.60;;;;;;;5.65;38.72;96850.00;5038876;28;20423;-69
2024/01/16 10:04:27;;;;;;;7.63;3.60;;;;;;;5.99;38.51;96851.47;5034718;28;20448;-69
2024/01/16 10:06:53;;;;;;;8.23;4.20;;;;;;;6.24;38.09;96854.56;5042153;28;20426;-70
2024/01/16 10:09:19;;;;;;;4.40;3.30;;;;;;;6.59;37.40;96848.88;5026569;28;20518;-71
2024/01/16 10:11:45;;;;;;;4.73;3.30;;;;;;;6.88;36.45;96853.28;5038701;28;20490;-70
2024/01/16 10:14:11;;;;;;;5.30;3.40;;;;;;;7.04;36.04;96839.69;5040799;28;20194;-68
2024/01/16 10:16:55;;;;;;;6.17;3.70;;;;;;;7.29;35.25;96845.28;5041233;28;20195;-70
2024/01/16 10:19:21;;;;;;;7.40;3.70;;;;;;;7.66;35.20;96841.88;5041602;28;20285;-69
2024/01/16 10:21:46;;;;;;;4.37;3.07;;;;;;;8.06;34.64;96834.72;5058200;28;20505;-71
2024/01/16 10:24:13;;;;;;;7.57;3.10;;;;;;;8.31;32.50;96824.56;5047526;28;20229;-71
2024/01/16 10:26:38;;;;;;;4.57;3.13;;;;;;;8.74;33.80;96812.56;5045745;28;20228;-70
2024/01/16 10:29:06;;;;;;;4.20;3.30;;;;;;;9.01;32.91;96813.44;5039326;28;20974;-68
2024/01/16 10:31:32;;;;;;;3.27;2.70;;;;;;;8.94;33.19;96801.97;5041642;28;20636;-69
2024/01/16 10:33:57;;;;;;;6.30;3.27;;;;;;;9.00;32.54;96809.19;5038957;28;20450;-69
2024/01/16 10:36:25;;;;;;;5.77;3.07;;;;;;;9.00;32.58;96809.19;5043958;28;20675;-69
2024/01/16 10:38:57;;;;;;;7.30;3.50;;;;;;;9.20;32.25;96801.13;5036052;28;20225;-70
2024/01/16 10:41:26;;;;;;;5.90;3.27;;;;;;;9.43;32.08;96798.03;5040787;28;20915;-67
2024/01/16 10:44:06;;;;;;;5.70;3.20;;;;;;;9.63;32.04;96804.66;5037688;28;20429;-69
2024/01/16 10:46:32;;;;;;;7.30;3.30;;;;;;;10.04;30.87;96801.38;5037715;28;20437;-70
2024/01/16 10:48:59;;;;;;;8.20;3.10;;;;;;;10.30;30.79;96798.69;5038774;28;20443;-70
2024/01/16 10:51:26;;;;;;;9.23;3.53;;;;;;;10.55;30.50;96797.94;5038355;28;20409;-69
2024/01/16 10:53:57;;;;;;;4.80;2.90;;;;;;;10.80;29.18;96803.19;5040027;28;20457;-69
2024/01/16 10:56:23;;;;;;;6.70;2.70;;;;;;;10.98;29.38;96809.09;5042831;28;20554;-69
2024/01/16 10:58:58;;;;;;;4.50;2.83;;;;;;;11.00;28.50;96809.75;5056842;28;20421;-70
2024/01/16 11:01:24;;;;;;;6.80;2.80;;;;;;;11.11;28.45;96810.41;5042186;28;20423;-69
2024/01/16 11:03:50;;;;;;;4.97;2.90;;;;;;;11.20;28.12;96798.91;5053043;28;20428;-75
2024/01/16 11:06:17;;;;;;;3.43;2.80;;;;;;;11.28;28.00;96795.47;5044855;28;20655;-71
2024/01/16 11:08:46;;;;;;;4.67;2.67;;;;;;;11.44;27.67;96787.56;5044022;28;20930;-69
2024/01/16 11:11:13;;;;;;;5.10;2.87;;;;;;;11.47;28.09;96787.22;5043721;28;20422;-69
2024/01/16 11:13:38;;;;;;;7.00;3.10;;;;;;;11.59;27.15;96785.06;5040594;28;20422;-71
2024/01/16 11:16:05;;;;;;;6.90;3.17;;;;;;;11.31;28.12;96779.41;5054497;28;20420;-72
2024/01/16 11:18:32;;;;;;;5.73;2.90;;;;;;;11.00;28.46;96780.09;5055944;28;20201;-69
2024/01/16 11:20:58;;;;;;;4.83;2.80;;;;;;;10.83;28.96;96774.03;5058004;28;20856;-69
2024/01/16 11:23:24;;;;;;;4.13;2.87;;;;;;;10.89;28.98;96771.56;5056123;28;20412;-69
2024/01/16 11:25:49;;;;;;;6.00;3.60;;;;;;;11.13;29.14;96762.03;5044324;28;20536;-71
2024/01/16 11:28:15;;;;;;;11.40;2.90;;;;;;;11.32;28.49;96758.22;5045367;28;20179;-70
2024/01/16 11:30:43;;;;;;;5.20;3.07;;;;;;;11.27;28.18;96751.84;5037966;28;20749;-70
2024/01/16 11:33:31;;;;;;;9.43;2.60;;;;;;;11.29;27.61;96749.88;5035937;28;21157;-69